Terminal Aerodrome Forecast
Issued by NWS

Home | Current Version | Previous Version | Text Only | Print | Product List | Glossary Off
Versions: 1 2 3 4 5 6 7 8 9 10 11 12 13 14 15 16 17 18 19 20 21 22 23 24 25 26 27 28 29 30 31

000
FTUS43 KLOT 161507 AAB
TAFORD
TAF AMD
KORD 161507Z 1615/1718 34013G19KT P6SM BKN025 BKN040
     FM161700 32012KT P6SM SCT030
     FM162100 29007KT P6SM SKC
     FM170200 24004KT P6SM FEW250
     FM170700 20006KT P6SM FEW180 BKN250
     FM171600 20012KT P6SM SCT100 BKN140=

USA.gov is the U.S. government's official web portal to all federal, state and local government web resources and services.